Main page
METAR-TAF:

METAR-TAF

Airports :

Melilla, Spain

Melilla Airport

latitude: 35-17N, longitude: 002-57W, elevation: 47 m

Current weather observation

The report was made 29 minutes ago, at 07:00 UTC
Wind 2 kt from variable directions
Temperature 12°C
Humidity 94%
Pressure 1017 hPa
Visibility 10 km or more
Few clouds at a height of 900 ft
Scattered clouds at a height of 1200 ft

METAR: GEML 220700Z VRB02KT 9999 FEW009 SCT012 12/11 Q1017

Time: 08:29 (07:29 UTC)

Forecast

The report was made 5 hours and 29 minutes ago, at 02:00 UTC
Forecast valid from 22 at 03 UTC to 23 at 03 UTC
Wind 3 kt from the West
Visibility 10 km or more
Scattered clouds at a height of 1000 ft
Temporary
from 22 at 03 UTC to 22 at 09 UTC
Broken clouds at a height of 1000 ft
Probability 30% :
Temporary
from 22 at 05 UTC to 22 at 08 UTC
Visibility: 3000 m
mist, patches of fog

TAF: GEML 220200Z 2203/2303 27003KT 9999 SCT010 TX19/2213Z TN10/2207Z TEMPO 2203/2209 BKN010 PROB30 TEMPO 2205/2208 3000 BR BCFG

Weather observations and forecasts of more than 4000 airports (METAR and TAF reports).

The available stations are represented by yellow and red dots on the map.

Hover mouse over dot to see the name of the station.

Then click to see weather observations and forecasts.

To change the map : click on the green buttons with a black cross to zoom in, on the green button with a dash to zoom out, or on the green arrows for adjacent maps.


METAR-TAF: